Sumifukumaru No.5 — JD3058 — position and weather

sailwx.info

Track history (hours):
 
Tides and Currents Weather Stations Pressure Air Temp Water Temp Dewpoint Dewpoint Depression Visibility Wind Speed Wind Dir Waves Ship Positions

Sumifukumaru No.5

Last reported at 2016-Jun-28 18:29 UTC. Time now 2016-Jun-28 18:56 UTC.
Position N 34°22' E 135°06'.

Length 75 m; draft 4.4 m.

Type: Cargo ship. MMSI: 431001371.

Date/timePositionNaut miles runAvg speedWind from/ knotsBaromVisibWave heightAir tempDewpointWater temp
2016-Jun-28 18:29N 34°22' E 135°06'1111.5
2016-Jun-28 17:34N 34°30' E 135°15'1010.4
2016-Jun-28 16:33N 34°36' E 135°25'2 0.1
2016-Jun-27 23:18N 34°34' E 135°27'0 0.0
2016-Jun-27 22:30N 34°34' E 135°27'0 0.0
2016-Jun-27 21:30N 34°34' E 135°27'0 0.0
2016-Jun-27 20:30N 34°34' E 135°27'0 0.0
2016-Jun-27 19:30N 34°34' E 135°27'0 0.0
2016-Jun-27 18:30N 34°34' E 135°27'0 0.0
2016-Jun-27 17:24N 34°34' E 135°27'0 0.0
2016-Jun-27 16:30N 34°34' E 135°27'0 0.0
2016-Jun-27 15:24N 34°34' E 135°27'0 0.0
2016-Jun-27 14:30N 34°34' E 135°27'0 0.0
2016-Jun-27 13:24N 34°34' E 135°27'0 0.0
2016-Jun-27 12:18N 34°34' E 135°27'0 0.0
2016-Jun-27 11:30N 34°34' E 135°27'5 5.0
2016-Jun-27 10:33N 34°36' E 135°22'1312.9
2016-Jun-27 09:33N 34°35' E 135°06'1613.2
2016-Jun-27 08:20N 34°40' E 134°48'  
2016-Jun-21 16:08N 35°02' E 139°34'710.7
2016-Jun-21 15:31N 35°06' E 139°40'1010.5
2016-Jun-21 14:33N 35°15' E 139°46'1010.3
2016-Jun-21 13:34N 35°25' E 139°44'7 6.4
2016-Jun-21 12:28N 35°21' E 139°51'0 0.0
2016-Jun-20 22:33N 35°21' E 139°51'0 0.3
2016-Jun-20 21:32N 35°22' E 139°51'0 0.0
2016-Jun-20 20:32N 35°22' E 139°51'0 0.0
2016-Jun-20 19:32N 35°22' E 139°51'0 0.0
2016-Jun-20 18:29N 35°22' E 139°51'0 0.0
2016-Jun-20 17:26N 35°22' E 139°51'0 0.0
2016-Jun-20 16:20N 35°22' E 139°51'0 0.0
2016-Jun-20 15:32N 35°22' E 139°51'0 0.0
2016-Jun-20 14:32N 35°22' E 139°51'0 0.0
2016-Jun-20 13:29N 35°22' E 139°51'0 0.0
2016-Jun-20 12:26N 35°22' E 139°51'0 0.0
2016-Jun-20 11:32N 35°22' E 139°51'0 0.0
2016-Jun-20 10:32N 35°22' E 139°51'0 0.0
2016-Jun-20 09:29N 35°22' E 139°51'0 0.0
2016-Jun-20 08:29N 35°22' E 139°51'0 0.0
2016-Jun-20 07:32N 35°22' E 139°51'0 0.0
2016-Jun-20 06:32N 35°22' E 139°51'0 0.0
2016-Jun-20 05:26N 35°22' E 139°51'0 0.0
2016-Jun-20 04:32N 35°22' E 139°51'0 0.0
2016-Jun-20 03:32N 35°22' E 139°51'0 0.0
2016-Jun-20 02:26N 35°22' E 139°51'0 0.0
2016-Jun-20 01:20N 35°22' E 139°51'2 1.9
2016-Jun-20 00:32N 35°22' E 139°49'0 0.0
2016-Jun-19 23:32N 35°22' E 139°49'0 0.0
2016-Jun-19 22:32N 35°22' E 139°49'0 0.0
2016-Jun-19 21:32N 35°22' E 139°49'0 0.0
2016-Jun-19 20:32N 35°22' E 139°49'0 0.0
2016-Jun-19 19:32N 35°22' E 139°49'0 0.1
2016-Jun-19 18:32N 35°22' E 139°49'0 0.0
2016-Jun-19 17:29N 35°22' E 139°49'0 0.0
2016-Jun-19 16:32N 35°22' E 139°49'0 0.1
2016-Jun-19 15:32N 35°22' E 139°49'0 0.0
2016-Jun-19 14:32N 35°22' E 139°49'0 0.0
2016-Jun-19 13:32N 35°22' E 139°49'0 0.0
2016-Jun-19 12:32N 35°22' E 139°49'0 0.0
2016-Jun-19 11:32N 35°22' E 139°49'0 0.0
2016-Jun-19 10:32N 35°22' E 139°49'0 0.0
2016-Jun-19 09:32N 35°22' E 139°49'0 0.0
2016-Jun-19 08:32N 35°22' E 139°49'0 0.0
2016-Jun-19 07:29N 35°22' E 139°49'3 2.9
2016-Jun-19 06:34N 35°25' E 139°50'1211.6
2016-Jun-19 05:34N 35°35' E 139°56'6 6.4
2016-Jun-19 04:34N 35°41' E 139°57'0 0.0
2016-Jun-19 03:31N 35°41' E 139°57'0 0.0
2016-Jun-19 02:31N 35°41' E 139°57'0 0.0
2016-Jun-19 01:34N 35°41' E 139°57'0 0.0
2016-Jun-19 00:31N 35°41' E 139°57'0 0.0
2016-Jun-18 23:28N 35°41' E 139°57'0 0.0
2016-Jun-18 22:30N 35°41' E 139°57'0 0.0
2016-Jun-18 21:27N 35°41' E 139°57'0 0.0
2016-Jun-18 20:33N 35°41' E 139°57'0 0.0
2016-Jun-18 19:30N 35°41' E 139°57'0 0.0
2016-Jun-18 18:30N 35°41' E 139°57'  
Track history (hours):
 
Tides and Currents Weather Stations Pressure Air Temp Water Temp Dewpoint Dewpoint Depression Visibility Wind Speed Wind Dir Waves Ship Positions

Sumifukumaru No.5

Last reported at 2016-Jun-28 18:29 UTC. Time now 2016-Jun-28 18:56 UTC.
Position N 34°22' E 135°06'.

Length 75 m; draft 4.4 m.

Type: Cargo ship. MMSI: 431001371.

Date/timePositionNaut miles runAvg speedWind from/ knotsBaromVisibWave heightAir tempDewpointWater temp
2016-Jun-28 18:29N 34°22' E 135°06'1111.5
2016-Jun-28 17:34N 34°30' E 135°15'1010.4
2016-Jun-28 16:33N 34°36' E 135°25'2 0.1
2016-Jun-27 23:18N 34°34' E 135°27'0 0.0
2016-Jun-27 22:30N 34°34' E 135°27'0 0.0
2016-Jun-27 21:30N 34°34' E 135°27'0 0.0
2016-Jun-27 20:30N 34°34' E 135°27'0 0.0
2016-Jun-27 19:30N 34°34' E 135°27'0 0.0
2016-Jun-27 18:30N 34°34' E 135°27'0 0.0
2016-Jun-27 17:24N 34°34' E 135°27'0 0.0
2016-Jun-27 16:30N 34°34' E 135°27'0 0.0
2016-Jun-27 15:24N 34°34' E 135°27'0 0.0
2016-Jun-27 14:30N 34°34' E 135°27'0 0.0
2016-Jun-27 13:24N 34°34' E 135°27'0 0.0
2016-Jun-27 12:18N 34°34' E 135°27'0 0.0
2016-Jun-27 11:30N 34°34' E 135°27'5 5.0
2016-Jun-27 10:33N 34°36' E 135°22'1312.9
2016-Jun-27 09:33N 34°35' E 135°06'1613.2
2016-Jun-27 08:20N 34°40' E 134°48'  
2016-Jun-21 16:08N 35°02' E 139°34'710.7
2016-Jun-21 15:31N 35°06' E 139°40'1010.5
2016-Jun-21 14:33N 35°15' E 139°46'1010.3
2016-Jun-21 13:34N 35°25' E 139°44'7 6.4
2016-Jun-21 12:28N 35°21' E 139°51'0 0.0
2016-Jun-20 22:33N 35°21' E 139°51'0 0.3
2016-Jun-20 21:32N 35°22' E 139°51'0 0.0
2016-Jun-20 20:32N 35°22' E 139°51'0 0.0
2016-Jun-20 19:32N 35°22' E 139°51'0 0.0
2016-Jun-20 18:29N 35°22' E 139°51'0 0.0
2016-Jun-20 17:26N 35°22' E 139°51'0 0.0
2016-Jun-20 16:20N 35°22' E 139°51'0 0.0
2016-Jun-20 15:32N 35°22' E 139°51'0 0.0
2016-Jun-20 14:32N 35°22' E 139°51'0 0.0
2016-Jun-20 13:29N 35°22' E 139°51'0 0.0
2016-Jun-20 12:26N 35°22' E 139°51'0 0.0
2016-Jun-20 11:32N 35°22' E 139°51'0 0.0
2016-Jun-20 10:32N 35°22' E 139°51'0 0.0
2016-Jun-20 09:29N 35°22' E 139°51'0 0.0
2016-Jun-20 08:29N 35°22' E 139°51'0 0.0
2016-Jun-20 07:32N 35°22' E 139°51'0 0.0
2016-Jun-20 06:32N 35°22' E 139°51'0 0.0
2016-Jun-20 05:26N 35°22' E 139°51'0 0.0
2016-Jun-20 04:32N 35°22' E 139°51'0 0.0
2016-Jun-20 03:32N 35°22' E 139°51'0 0.0
2016-Jun-20 02:26N 35°22' E 139°51'0 0.0
2016-Jun-20 01:20N 35°22' E 139°51'2 1.9
2016-Jun-20 00:32N 35°22' E 139°49'0 0.0
2016-Jun-19 23:32N 35°22' E 139°49'0 0.0
2016-Jun-19 22:32N 35°22' E 139°49'0 0.0
2016-Jun-19 21:32N 35°22' E 139°49'0 0.0
2016-Jun-19 20:32N 35°22' E 139°49'0 0.0
2016-Jun-19 19:32N 35°22' E 139°49'0 0.1
2016-Jun-19 18:32N 35°22' E 139°49'0 0.0
2016-Jun-19 17:29N 35°22' E 139°49'0 0.0
2016-Jun-19 16:32N 35°22' E 139°49'0 0.1
2016-Jun-19 15:32N 35°22' E 139°49'0 0.0
2016-Jun-19 14:32N 35°22' E 139°49'0 0.0
2016-Jun-19 13:32N 35°22' E 139°49'0 0.0
2016-Jun-19 12:32N 35°22' E 139°49'0 0.0
2016-Jun-19 11:32N 35°22' E 139°49'0 0.0
2016-Jun-19 10:32N 35°22' E 139°49'0 0.0
2016-Jun-19 09:32N 35°22' E 139°49'0 0.0
2016-Jun-19 08:32N 35°22' E 139°49'0 0.0
2016-Jun-19 07:29N 35°22' E 139°49'3 2.9
2016-Jun-19 06:34N 35°25' E 139°50'1211.6
2016-Jun-19 05:34N 35°35' E 139°56'6 6.4
2016-Jun-19 04:34N 35°41' E 139°57'0 0.0
2016-Jun-19 03:31N 35°41' E 139°57'0 0.0
2016-Jun-19 02:31N 35°41' E 139°57'0 0.0
2016-Jun-19 01:34N 35°41' E 139°57'0 0.0
2016-Jun-19 00:31N 35°41' E 139°57'0 0.0
2016-Jun-18 23:28N 35°41' E 139°57'0 0.0
2016-Jun-18 22:30N 35°41' E 139°57'0 0.0
2016-Jun-18 21:27N 35°41' E 139°57'0 0.0
2016-Jun-18 20:33N 35°41' E 139°57'0 0.0
2016-Jun-18 19:30N 35°41' E 139°57'0 0.0
2016-Jun-18 18:30N 35°41' E 139°57'  

Dump ship's entire track history